createdAt,value
2022-09-23T00:00:11.711Z,0.00
2022-09-23T00:01:11.762Z,0.00
2022-09-23T00:02:11.703Z,0.00
2022-09-23T00:03:11.567Z,0.00
2022-09-23T00:04:11.520Z,0.00
2022-09-23T00:05:11.472Z,0.00
2022-09-23T00:06:11.422Z,0.00
2022-09-23T00:07:11.375Z,0.00
2022-09-23T00:08:11.326Z,0.00
2022-09-23T00:09:11.280Z,0.00
2022-09-23T00:10:11.247Z,0.00
2022-09-23T00:11:11.180Z,0.00
2022-09-23T00:12:11.135Z,0.00
2022-09-23T00:13:11.084Z,0.00
2022-09-23T00:14:11.038Z,0.00
2022-09-23T00:15:10.988Z,0.00
2022-09-23T00:16:10.938Z,0.00
2022-09-23T00:17:10.958Z,0.00
2022-09-23T00:18:10.846Z,0.00
2022-09-23T00:19:10.798Z,0.00
2022-09-23T00:20:10.747Z,0.00
2022-09-23T00:21:10.703Z,0.00
2022-09-23T00:22:10.651Z,0.00
2022-09-23T00:23:10.603Z,0.00
2022-09-23T00:24:10.553Z,0.00
2022-09-23T00:25:10.509Z,0.00
2022-09-23T00:26:10.476Z,0.00
2022-09-23T00:27:10.411Z,0.00
2022-09-23T00:28:10.362Z,0.00
2022-09-23T00:29:10.317Z,0.00
2022-09-23T00:30:10.266Z,0.00
2022-09-23T00:31:10.308Z,0.00
2022-09-23T00:32:10.168Z,0.00
2022-09-23T00:33:10.123Z,0.00
2022-09-23T00:34:10.074Z,0.00
2022-09-23T00:35:10.027Z,0.00
2022-09-23T00:36:09.984Z,0.00
2022-09-23T00:37:09.935Z,0.00
2022-09-23T00:38:09.883Z,0.00
2022-09-23T00:39:09.839Z,0.00
2022-09-23T00:40:09.816Z,0.00
2022-09-23T00:41:09.737Z,0.00
2022-09-23T00:42:09.713Z,0.00
2022-09-23T00:43:09.644Z,0.00
2022-09-23T00:44:09.618Z,0.00
2022-09-23T00:45:09.549Z,0.00
2022-09-23T00:46:09.558Z,0.00
2022-09-23T00:47:09.451Z,0.00
2022-09-23T00:48:09.403Z,0.00
2022-09-23T00:49:09.353Z,0.00
2022-09-23T00:50:09.303Z,0.00
2022-09-23T00:51:09.256Z,0.00
2022-09-23T00:52:09.209Z,0.00
2022-09-23T00:53:09.161Z,0.00
2022-09-23T00:54:09.111Z,0.00
2022-09-23T00:55:09.064Z,0.00
2022-09-23T00:56:09.018Z,0.00
2022-09-23T00:57:08.972Z,0.00
2022-09-23T00:58:08.942Z,0.00
2022-09-23T00:59:08.923Z,0.00
2022-09-23T01:00:08.821Z,0.00
2022-09-23T01:01:08.842Z,0.00
2022-09-23T01:02:08.788Z,0.00
2022-09-23T01:03:08.678Z,0.00
2022-09-23T01:04:08.629Z,0.00
2022-09-23T01:05:08.589Z,0.00
2022-09-23T01:06:08.535Z,0.00
2022-09-23T01:07:08.486Z,0.00
2022-09-23T01:08:08.437Z,0.00
2022-09-23T01:09:08.394Z,0.00
2022-09-23T01:10:08.341Z,0.00
2022-09-23T01:11:08.294Z,0.00
2022-09-23T01:12:08.244Z,0.00
2022-09-23T01:13:08.197Z,0.00
2022-09-23T01:14:08.167Z,0.00
2022-09-23T01:15:08.101Z,0.00
2022-09-23T01:16:08.057Z,0.00
2022-09-23T01:17:08.080Z,0.00
2022-09-23T01:18:08.163Z,0.00
2022-09-23T01:19:07.909Z,0.00
2022-09-23T01:20:07.859Z,0.00
2022-09-23T01:21:07.816Z,0.00
2022-09-23T01:22:07.765Z,0.00
2022-09-23T01:23:07.922Z,0.00
2022-09-23T01:24:07.746Z,0.00
2022-09-23T01:25:07.626Z,0.00
2022-09-23T01:26:07.573Z,0.00
2022-09-23T01:27:07.524Z,0.00
2022-09-23T01:28:07.477Z,0.00
2022-09-23T01:29:07.437Z,0.00
2022-09-23T01:30:07.398Z,0.00
2022-09-23T01:31:07.395Z,0.00
2022-09-23T01:32:07.284Z,0.00
2022-09-23T01:33:07.237Z,0.00
2022-09-23T01:34:07.188Z,0.00
2022-09-23T01:35:07.141Z,0.00
2022-09-23T01:36:07.090Z,0.00
2022-09-23T01:37:07.046Z,0.00
2022-09-23T01:38:06.996Z,0.00
2022-09-23T01:39:07.158Z,0.00
2022-09-23T01:40:07.016Z,0.00
2022-09-23T01:41:06.863Z,0.00
2022-09-23T01:42:06.806Z,0.00
2022-09-23T01:43:06.757Z,0.00
2022-09-23T01:44:06.706Z,0.00
2022-09-23T01:45:06.660Z,0.00
2022-09-23T01:46:06.629Z,0.00
2022-09-23T01:47:06.565Z,0.00
2022-09-23T01:48:06.562Z,0.00
2022-09-23T01:49:06.593Z,0.00
2022-09-23T01:50:06.422Z,0.00
2022-09-23T01:51:06.379Z,0.00
2022-09-23T01:52:06.324Z,0.00
2022-09-23T01:53:06.278Z,0.00
2022-09-23T01:54:06.229Z,0.00
2022-09-23T01:55:06.183Z,0.00
2022-09-23T01:56:06.139Z,0.00
2022-09-23T01:57:06.084Z,0.00
2022-09-23T01:58:06.036Z,0.00
2022-09-23T01:59:05.990Z,0.00
2022-09-23T02:00:05.940Z,0.00
2022-09-23T02:01:06.038Z,0.00
2022-09-23T02:02:05.936Z,0.00
2022-09-23T02:03:05.802Z,0.00
2022-09-23T02:04:05.886Z,0.00
2022-09-23T02:05:05.701Z,0.00
2022-09-23T02:06:05.653Z,0.00
2022-09-23T02:07:05.604Z,0.00
2022-09-23T02:08:05.554Z,0.00
2022-09-23T02:09:05.517Z,0.00
2022-09-23T02:10:05.461Z,0.00
2022-09-23T02:11:05.413Z,0.00
2022-09-23T02:12:05.364Z,0.00
2022-09-23T02:13:05.329Z,0.00
2022-09-23T02:14:05.272Z,0.00
2022-09-23T02:15:05.220Z,0.00
2022-09-23T02:16:05.175Z,0.00
2022-09-23T02:17:05.125Z,0.00
2022-09-23T02:18:05.095Z,0.00
2022-09-23T02:19:05.028Z,0.00
2022-09-23T02:20:04.990Z,0.00
2022-09-23T02:21:04.949Z,0.00
2022-09-23T02:22:04.883Z,0.00
2022-09-23T02:23:04.838Z,0.00
2022-09-23T02:24:04.795Z,0.00
2022-09-23T02:25:04.747Z,0.00
2022-09-23T02:26:04.692Z,0.00
2022-09-23T02:27:04.649Z,0.00
2022-09-23T02:28:04.598Z,0.00
2022-09-23T02:29:04.551Z,0.00
2022-09-23T02:30:04.503Z,0.00
2022-09-23T02:31:04.453Z,0.00
2022-09-23T02:32:04.461Z,0.00
2022-09-23T02:33:04.360Z,0.00
2022-09-23T02:34:04.327Z,0.00
2022-09-23T02:35:04.264Z,0.00
2022-09-23T02:36:04.210Z,0.00
2022-09-23T02:37:04.171Z,0.00
2022-09-23T02:38:04.126Z,0.00
2022-09-23T02:39:04.067Z,0.00
2022-09-23T02:40:04.131Z,0.00
2022-09-23T02:41:03.975Z,0.00
2022-09-23T02:42:03.926Z,0.00
2022-09-23T02:43:03.877Z,0.00
2022-09-23T02:44:03.828Z,0.00
2022-09-23T02:45:03.782Z,0.00
2022-09-23T02:46:03.863Z,0.00
2022-09-23T02:47:03.683Z,0.00
2022-09-23T02:48:03.841Z,0.00
2022-09-23T02:49:03.589Z,0.00
2022-09-23T02:50:03.562Z,0.00
2022-09-23T02:51:03.497Z,0.00
2022-09-23T02:52:03.445Z,0.00
2022-09-23T02:53:03.398Z,0.00
2022-09-23T02:54:03.351Z,0.00
2022-09-23T02:55:03.300Z,0.00
2022-09-23T02:56:03.253Z,0.00
2022-09-23T02:57:03.204Z,0.00
2022-09-23T02:58:03.157Z,0.00
2022-09-23T02:59:03.109Z,0.00
2022-09-23T03:00:03.062Z,0.00
2022-09-23T03:01:03.135Z,0.00
2022-09-23T03:02:03.015Z,0.00
2022-09-23T03:03:02.922Z,0.00
2022-09-23T03:04:02.870Z,0.00
2022-09-23T03:05:02.822Z,0.00
2022-09-23T03:06:02.793Z,0.00
2022-09-23T03:07:02.724Z,0.00
2022-09-23T03:08:02.680Z,0.00
2022-09-23T03:09:02.690Z,0.00
2022-09-23T03:10:02.588Z,0.00
2022-09-23T03:11:02.534Z,0.00
2022-09-23T03:12:02.487Z,0.00
2022-09-23T03:13:02.439Z,0.00
2022-09-23T03:14:02.391Z,0.00
2022-09-23T03:15:02.388Z,0.00
2022-09-23T03:16:02.368Z,0.00
2022-09-23T03:17:02.245Z,0.00
2022-09-23T03:18:02.203Z,0.00
2022-09-23T03:19:02.151Z,0.00
2022-09-23T03:20:02.105Z,0.00
2022-09-23T03:21:02.054Z,0.00
2022-09-23T03:22:02.026Z,0.00
2022-09-23T03:23:01.957Z,0.00
2022-09-23T03:24:01.951Z,0.00
2022-09-23T03:25:01.861Z,0.00
2022-09-23T03:26:01.817Z,0.00
2022-09-23T03:27:01.767Z,0.00
2022-09-23T03:28:01.722Z,0.00
2022-09-23T03:29:01.670Z,0.00
2022-09-23T03:30:01.624Z,0.00
2022-09-23T03:31:01.574Z,0.00
2022-09-23T03:32:01.597Z,0.00
2022-09-23T03:33:01.494Z,0.00
2022-09-23T03:34:01.443Z,0.00
2022-09-23T03:35:01.382Z,0.00
2022-09-23T03:36:01.349Z,0.00
2022-09-23T03:37:01.287Z,0.00
2022-09-23T03:38:01.257Z,0.00
2022-09-23T03:39:01.239Z,0.00
2022-09-23T03:40:01.141Z,0.00
2022-09-23T03:41:01.093Z,0.00
2022-09-23T03:42:01.049Z,0.00
2022-09-23T03:43:00.998Z,0.00
2022-09-23T03:44:00.954Z,0.00
2022-09-23T03:45:00.900Z,0.00
2022-09-23T03:46:00.923Z,0.00
2022-09-23T03:47:00.804Z,0.00
2022-09-23T03:48:00.759Z,0.00
2022-09-23T03:49:00.711Z,0.00
2022-09-23T03:50:00.662Z,0.00
2022-09-23T03:51:00.612Z,0.00
2022-09-23T03:52:00.565Z,0.00
2022-09-23T03:53:00.538Z,0.00
2022-09-23T03:54:00.491Z,0.00
2022-09-23T03:55:00.420Z,0.00
2022-09-23T03:56:00.376Z,0.00
2022-09-23T03:57:00.324Z,0.00
2022-09-23T03:58:00.484Z,0.00
2022-09-23T03:59:00.227Z,0.00
2022-09-23T04:00:00.189Z,0.00
2022-09-23T04:01:00.236Z,0.00
2022-09-23T04:02:00.174Z,0.00
2022-09-23T04:03:00.056Z,0.00
2022-09-23T04:04:00.191Z,0.00
2022-09-23T04:04:59.939Z,0.00
2022-09-23T04:05:59.896Z,0.00
2022-09-23T04:06:59.842Z,0.00
2022-09-23T04:07:59.797Z,0.00
2022-09-23T04:08:59.749Z,0.00
2022-09-23T04:09:59.723Z,0.00
2022-09-23T04:10:59.653Z,0.00
2022-09-23T04:11:59.603Z,0.00
2022-09-23T04:12:59.556Z,0.00
2022-09-23T04:13:59.509Z,0.00
2022-09-23T04:14:59.457Z,0.00
2022-09-23T04:15:59.476Z,0.00
2022-09-23T04:16:59.360Z,0.00
2022-09-23T04:17:59.319Z,0.00
2022-09-23T04:18:59.329Z,0.00
2022-09-23T04:19:59.224Z,0.00
2022-09-23T04:20:59.170Z,0.00
2022-09-23T04:21:59.127Z,0.00
2022-09-23T04:22:59.073Z,0.00
2022-09-23T04:23:59.030Z,0.00
2022-09-23T04:24:58.991Z,0.00
2022-09-23T04:25:58.956Z,0.00
2022-09-23T04:26:58.881Z,0.00
2022-09-23T04:27:58.833Z,0.00
2022-09-23T04:28:58.907Z,0.00
2022-09-23T04:29:58.742Z,0.00
2022-09-23T04:30:58.688Z,0.00
2022-09-23T04:31:58.837Z,0.00
2022-09-23T04:32:58.595Z,0.00
2022-09-23T04:33:58.544Z,0.00
2022-09-23T04:34:58.495Z,0.00
2022-09-23T04:35:58.448Z,0.00
2022-09-23T04:36:58.404Z,0.00
2022-09-23T04:37:58.361Z,0.00
2022-09-23T04:38:58.302Z,0.00
2022-09-23T04:39:58.256Z,0.00
2022-09-23T04:40:58.204Z,0.00
2022-09-23T04:41:58.187Z,0.00
2022-09-23T04:42:58.109Z,0.00
2022-09-23T04:43:58.061Z,0.00
2022-09-23T04:44:58.014Z,0.00
2022-09-23T04:45:57.966Z,0.00
2022-09-23T04:46:57.940Z,0.00
2022-09-23T04:47:57.870Z,0.00
2022-09-23T04:48:57.821Z,0.00
2022-09-23T04:49:59.826Z,0.00
2022-09-23T04:50:57.728Z,0.00
2022-09-23T04:51:57.682Z,0.00
2022-09-23T04:52:57.629Z,0.00
2022-09-23T04:53:57.582Z,0.00
2022-09-23T04:54:57.531Z,0.00
2022-09-23T04:55:57.483Z,0.00
2022-09-23T04:56:57.434Z,0.00
2022-09-23T04:57:57.412Z,0.00
2022-09-23T04:58:57.339Z,4.00
2022-09-23T04:59:57.296Z,4.00
2022-09-23T05:00:59.525Z,0.00
2022-09-23T05:01:57.202Z,4.00
2022-09-23T05:02:57.147Z,4.00
2022-09-23T05:03:57.098Z,4.00
2022-09-23T05:04:57.048Z,8.00
2022-09-23T05:05:57.009Z,4.00
2022-09-23T05:07:02.223Z,8.00
2022-09-23T05:07:56.906Z,12.00
2022-09-23T05:08:56.856Z,12.00
2022-09-23T05:09:56.813Z,12.00
2022-09-23T05:10:56.759Z,16.00
2022-09-23T05:11:56.712Z,16.00
2022-09-23T05:12:57.479Z,20.00
2022-09-23T05:13:56.636Z,24.00
2022-09-23T05:14:56.566Z,28.00
2022-09-23T05:15:56.545Z,32.00
2022-09-23T05:16:56.487Z,36.00
2022-09-23T05:17:56.427Z,36.00
2022-09-23T05:18:56.373Z,40.00
2022-09-23T05:19:56.328Z,44.00
2022-09-23T05:20:56.281Z,48.00
2022-09-23T05:21:56.231Z,52.00
2022-09-23T05:22:56.188Z,56.00
2022-09-23T05:23:56.134Z,56.00
2022-09-23T05:24:56.087Z,64.00
2022-09-23T05:25:56.038Z,68.00
2022-09-23T05:26:55.993Z,72.00
2022-09-23T05:27:55.942Z,80.00
2022-09-23T05:28:55.892Z,84.00
2022-09-23T05:29:55.862Z,88.00
2022-09-23T05:30:55.799Z,96.00
2022-09-23T05:31:55.804Z,100.00
2022-09-23T05:32:55.701Z,112.00
2022-09-23T05:33:55.653Z,120.00
2022-09-23T05:34:55.601Z,128.00
2022-09-23T05:35:55.556Z,136.00
2022-09-23T05:36:55.507Z,148.00
2022-09-23T05:37:55.459Z,156.00
2022-09-23T05:38:55.413Z,168.00
2022-09-23T05:39:55.363Z,176.00
2022-09-23T05:40:55.314Z,188.00
2022-09-23T05:41:55.268Z,204.00
2022-09-23T05:42:55.221Z,220.00
2022-09-23T05:43:55.172Z,232.00
2022-09-23T05:44:55.123Z,248.00
2022-09-23T05:45:55.097Z,264.00
2022-09-23T05:46:55.129Z,280.00
2022-09-23T05:47:54.978Z,300.00
2022-09-23T05:48:58.641Z,316.00
2022-09-23T05:50:00.002Z,340.00
2022-09-23T05:50:54.834Z,356.00
2022-09-23T05:51:54.787Z,376.00
2022-09-23T05:52:54.736Z,392.00
2022-09-23T05:54:54.639Z,432.00
2022-09-23T05:55:54.688Z,448.00
2022-09-23T05:56:54.546Z,464.00
2022-09-23T05:57:54.495Z,476.00
2022-09-23T05:58:54.448Z,488.00
2022-09-23T05:59:54.397Z,500.00
2022-09-23T06:00:54.391Z,512.00
2022-09-23T06:01:56.482Z,524.00
2022-09-23T06:02:54.319Z,544.00
2022-09-23T06:03:54.205Z,556.00
2022-09-23T06:04:54.158Z,572.00
2022-09-23T06:05:54.109Z,588.00
2022-09-23T06:06:54.064Z,600.00
2022-09-23T06:07:54.012Z,616.00
2022-09-23T06:08:53.983Z,628.00
2022-09-23T06:09:53.935Z,640.00
2022-09-23T06:10:54.686Z,656.00
2022-09-23T06:11:53.820Z,696.00
2022-09-23T06:12:53.774Z,712.00
2022-09-23T06:13:53.723Z,732.00
2022-09-23T06:14:53.677Z,748.00
2022-09-23T06:15:53.665Z,764.00
2022-09-23T06:16:53.580Z,776.00
2022-09-23T06:17:53.547Z,792.00
2022-09-23T06:18:53.483Z,812.00
2022-09-23T06:19:53.434Z,828.00
2022-09-23T06:20:53.390Z,848.00
2022-09-23T06:21:53.339Z,864.00
2022-09-23T06:22:55.549Z,880.00
2022-09-23T06:24:03.843Z,892.00
2022-09-23T06:24:53.198Z,904.00
2022-09-23T06:25:53.146Z,916.00
2022-09-23T06:26:53.098Z,932.00
2022-09-23T06:27:53.049Z,948.00
2022-09-23T06:28:53.004Z,976.00
2022-09-23T06:29:52.956Z,996.00
2022-09-23T06:30:53.002Z,1036.00
2022-09-23T06:31:52.920Z,1092.00
2022-09-23T06:32:52.811Z,1164.00
2022-09-23T06:34:04.440Z,1220.00
2022-09-23T06:34:52.716Z,1276.00
2022-09-23T06:35:58.768Z,1388.00
2022-09-23T06:36:52.623Z,1484.00
2022-09-23T06:37:52.569Z,1580.00
2022-09-23T06:38:52.523Z,1608.00
2022-09-23T06:39:52.475Z,1676.00
2022-09-23T06:40:52.501Z,1836.00
2022-09-23T06:41:52.378Z,1904.00
2022-09-23T06:42:52.526Z,1856.00
2022-09-23T06:43:52.283Z,1864.00
2022-09-23T06:44:52.238Z,1912.00
2022-09-23T06:45:52.188Z,1956.00
2022-09-23T06:46:52.206Z,1904.00
2022-09-23T06:47:52.091Z,1888.00
2022-09-23T06:48:52.046Z,2140.00
2022-09-23T06:49:52.013Z,2192.00
2022-09-23T06:50:51.951Z,1852.00
2022-09-23T06:51:51.903Z,2040.00
2022-09-23T06:52:51.858Z,2088.00
2022-09-23T06:53:51.810Z,1948.00
2022-09-23T06:54:51.761Z,1680.00
2022-09-23T06:55:51.717Z,1664.00
2022-09-23T06:56:51.665Z,1480.00
2022-09-23T06:57:51.619Z,1644.00
2022-09-23T06:58:51.571Z,2028.00
2022-09-23T06:59:51.537Z,2144.00
2022-09-23T07:00:51.488Z,1852.00
2022-09-23T07:01:51.591Z,1992.00
2022-09-23T07:02:51.442Z,1828.00
2022-09-23T07:03:51.336Z,1732.00
2022-09-23T07:04:51.286Z,1704.00
2022-09-23T07:05:51.258Z,1592.00
2022-09-23T07:06:51.193Z,1504.00
2022-09-23T07:07:51.147Z,1448.00
2022-09-23T07:08:51.100Z,1424.00
2022-09-23T07:09:51.054Z,1416.00
2022-09-23T07:10:51.006Z,1492.00
2022-09-23T07:11:50.960Z,1528.00
2022-09-23T07:12:50.914Z,1492.00
2022-09-23T07:13:50.872Z,1460.00
2022-09-23T07:14:50.817Z,1504.00
2022-09-23T07:15:50.846Z,1536.00
2022-09-23T07:16:50.723Z,1576.00
2022-09-23T07:17:50.681Z,1616.00
2022-09-23T07:18:50.631Z,1652.00
2022-09-23T07:19:50.587Z,1720.00
2022-09-23T07:20:50.538Z,1768.00
2022-09-23T07:21:50.566Z,1772.00
2022-09-23T07:22:50.443Z,1752.00
2022-09-23T07:23:50.465Z,1772.00
2022-09-23T07:24:50.352Z,1816.00
2022-09-23T07:25:50.387Z,1752.00
2022-09-23T07:26:50.257Z,1780.00
2022-09-23T07:27:50.212Z,1832.00
2022-09-23T07:28:50.163Z,1776.00
2022-09-23T07:29:50.119Z,1712.00
2022-09-23T07:30:59.483Z,1740.00
2022-09-23T07:31:50.186Z,1784.00
2022-09-23T07:32:50.062Z,1808.00
2022-09-23T07:33:49.934Z,1768.00
2022-09-23T07:34:49.888Z,1836.00
2022-09-23T07:35:49.840Z,1880.00
2022-09-23T07:36:49.798Z,1852.00
2022-09-23T07:37:49.763Z,1848.00
2022-09-23T07:38:49.699Z,1844.00
2022-09-23T07:39:49.656Z,1812.00
2022-09-23T07:40:49.666Z,1776.00
2022-09-23T07:41:49.565Z,1760.00
2022-09-23T07:42:49.521Z,1768.00
2022-09-23T07:43:49.470Z,1776.00
2022-09-23T07:44:49.426Z,1800.00
2022-09-23T07:45:49.383Z,1824.00
2022-09-23T07:46:49.361Z,1884.00
2022-09-23T07:47:49.286Z,1880.00
2022-09-23T07:48:49.237Z,1868.00
2022-09-23T07:49:49.195Z,1812.00
2022-09-23T07:50:49.179Z,1796.00
2022-09-23T07:51:49.124Z,1752.00
2022-09-23T07:52:49.054Z,1704.00
2022-09-23T07:53:49.031Z,1676.00
2022-09-23T07:54:48.961Z,1664.00
2022-09-23T07:55:48.918Z,1656.00
2022-09-23T07:56:48.869Z,1660.00
2022-09-23T07:57:48.826Z,1664.00
2022-09-23T07:58:48.780Z,1684.00
2022-09-23T07:59:48.732Z,1704.00
2022-09-23T08:00:48.699Z,1728.00
2022-09-23T08:01:48.689Z,1772.00
2022-09-23T08:02:52.800Z,1800.00
2022-09-23T08:03:48.553Z,1844.00
2022-09-23T08:04:48.510Z,1828.00
2022-09-23T08:05:48.470Z,1856.00
2022-09-23T08:06:48.414Z,1880.00
2022-09-23T08:07:48.418Z,1868.00
2022-09-23T08:08:53.080Z,1848.00
2022-09-23T08:09:48.292Z,1868.00
2022-09-23T08:10:48.230Z,1896.00
2022-09-23T08:11:48.180Z,1912.00
2022-09-23T08:12:48.135Z,1924.00
2022-09-23T08:13:48.093Z,1944.00
2022-09-23T08:14:48.042Z,1960.00
2022-09-23T08:15:52.005Z,1976.00
2022-09-23T08:16:47.951Z,1996.00
2022-09-23T08:17:47.906Z,2004.00
2022-09-23T08:18:47.862Z,2008.00
2022-09-23T08:19:47.819Z,2012.00
2022-09-23T08:20:48.191Z,2024.00
2022-09-23T08:21:47.760Z,2036.00
2022-09-23T08:22:47.678Z,2044.00
2022-09-23T08:23:47.636Z,2056.00
2022-09-23T08:24:47.586Z,2064.00
2022-09-23T08:25:47.569Z,2068.00
2022-09-23T08:26:47.511Z,2092.00
2022-09-23T08:27:47.499Z,2112.00
2022-09-23T08:28:47.405Z,2116.00
2022-09-23T08:29:47.362Z,2128.00
2022-09-23T08:30:47.346Z,2108.00
2022-09-23T08:31:47.272Z,2068.00
2022-09-23T08:32:47.221Z,2056.00
2022-09-23T08:33:47.179Z,2040.00
2022-09-23T08:34:47.131Z,2020.00
2022-09-23T08:35:47.088Z,2028.00
2022-09-23T08:36:47.040Z,2032.00
2022-09-23T08:37:46.996Z,2048.00
2022-09-23T08:38:46.946Z,2036.00
2022-09-23T08:39:46.908Z,2044.00
2022-09-23T08:40:46.888Z,2060.00
2022-09-23T08:41:46.832Z,2072.00
2022-09-23T08:42:46.767Z,2032.00
2022-09-23T08:43:46.746Z,2024.00
2022-09-23T08:44:46.676Z,2020.00
2022-09-23T08:45:46.633Z,2012.00
2022-09-23T08:46:46.584Z,1980.00
2022-09-23T08:47:46.547Z,1964.00
2022-09-23T08:48:46.497Z,1988.00
2022-09-23T08:49:46.453Z,1976.00
2022-09-23T08:50:46.407Z,1976.00
2022-09-23T08:51:46.361Z,1996.00
2022-09-23T08:52:46.313Z,2016.00
2022-09-23T08:53:46.270Z,2024.00
2022-09-23T08:54:46.222Z,2028.00
2022-09-23T08:55:46.181Z,2040.00
2022-09-23T08:56:46.132Z,2064.00
2022-09-23T08:58:02.198Z,2088.00
2022-09-23T08:58:46.048Z,2112.00
2022-09-23T08:59:45.997Z,2144.00
2022-09-23T09:00:45.955Z,2184.00
2022-09-23T09:01:45.943Z,2220.00
2022-09-23T09:02:45.922Z,2256.00
2022-09-23T09:03:45.820Z,2288.00
2022-09-23T09:04:45.770Z,2324.00
2022-09-23T09:05:53.905Z,2356.00
2022-09-23T09:06:52.803Z,2380.00
2022-09-23T09:07:45.636Z,2412.00
2022-09-23T09:08:45.590Z,2456.00
2022-09-23T09:09:45.546Z,2488.00
2022-09-23T09:10:45.504Z,2512.00
2022-09-23T09:11:48.547Z,2548.00
2022-09-23T09:12:45.411Z,2592.00
2022-09-23T09:13:50.711Z,2648.00
2022-09-23T09:14:45.337Z,2708.00
2022-09-23T09:15:45.292Z,2716.00
2022-09-23T09:16:59.107Z,2748.00
2022-09-23T09:17:45.193Z,2748.00
2022-09-23T09:18:45.143Z,2812.00
2022-09-23T09:19:45.095Z,2864.00
2022-09-23T09:20:45.054Z,2900.00
2022-09-23T09:21:45.007Z,2952.00
2022-09-23T09:22:44.960Z,2988.00
2022-09-23T09:23:44.914Z,2944.00
2022-09-23T09:24:44.873Z,3044.00
2022-09-23T09:25:44.825Z,3092.00
2022-09-23T09:26:44.783Z,3184.00
2022-09-23T09:27:44.748Z,3204.00
2022-09-23T09:28:44.690Z,3248.00
2022-09-23T09:29:44.657Z,3280.00
2022-09-23T09:30:48.371Z,3272.00
2022-09-23T09:31:44.556Z,3252.00
2022-09-23T09:32:44.512Z,3220.00
2022-09-23T09:33:44.468Z,3204.00
2022-09-23T09:34:44.420Z,3144.00
2022-09-23T09:35:44.379Z,3140.00
2022-09-23T09:36:44.338Z,3024.00
2022-09-23T09:37:44.303Z,3092.00
2022-09-23T09:38:44.240Z,3080.00
2022-09-23T09:39:44.200Z,3060.00
2022-09-23T09:40:44.201Z,3016.00
2022-09-23T09:41:44.111Z,3032.00
2022-09-23T09:42:44.061Z,2996.00
2022-09-23T09:43:44.399Z,2944.00
2022-09-23T09:44:43.973Z,2916.00
2022-09-23T09:45:43.930Z,2892.00
2022-09-23T09:46:43.959Z,2856.00
2022-09-23T09:47:43.850Z,2824.00
2022-09-23T09:48:43.797Z,2888.00
2022-09-23T09:49:43.754Z,2924.00
2022-09-23T09:50:43.705Z,2916.00
2022-09-23T09:51:43.663Z,2900.00
2022-09-23T09:52:43.571Z,2868.00
2022-09-23T09:53:43.522Z,2836.00
2022-09-23T09:54:43.473Z,2812.00
2022-09-23T09:55:43.433Z,2796.00
2022-09-23T09:56:43.425Z,2816.00
2022-09-23T09:57:43.342Z,2804.00
2022-09-23T09:58:43.296Z,2792.00
2022-09-23T09:59:43.253Z,2788.00
2022-09-23T10:00:43.207Z,2796.00
2022-09-23T10:01:43.195Z,2788.00
2022-09-23T10:02:43.136Z,2784.00
2022-09-23T10:03:43.087Z,2832.00
2022-09-23T10:04:43.066Z,2932.00
2022-09-23T10:05:42.986Z,3024.00
2022-09-23T10:06:42.938Z,3036.00
2022-09-23T10:07:42.894Z,3036.00
2022-09-23T10:08:42.848Z,3032.00
2022-09-23T10:09:42.807Z,2996.00
2022-09-23T10:10:42.758Z,2932.00
2022-09-23T10:11:42.716Z,2992.00
2022-09-23T10:12:42.674Z,3040.00
2022-09-23T10:13:42.628Z,3060.00
2022-09-23T10:14:42.581Z,3048.00
2022-09-23T10:15:45.005Z,3020.00
2022-09-23T10:16:42.576Z,3040.00
2022-09-23T10:17:42.450Z,3048.00
2022-09-23T10:18:42.422Z,3048.00
2022-09-23T10:19:42.362Z,3048.00
2022-09-23T10:20:42.316Z,3064.00
2022-09-23T10:21:42.273Z,3048.00
2022-09-23T10:22:42.230Z,3056.00
2022-09-23T10:23:42.184Z,3036.00
2022-09-23T10:24:42.139Z,3008.00
2022-09-23T10:25:42.170Z,2976.00
2022-09-23T10:26:42.050Z,2920.00
2022-09-23T10:28:41.966Z,2816.00
2022-09-23T10:29:41.922Z,2776.00
2022-09-23T10:30:41.905Z,2712.00
2022-09-23T10:31:41.830Z,2648.00
2022-09-23T10:32:41.787Z,2592.00
2022-09-23T10:33:41.748Z,2564.00
2022-09-23T10:34:41.718Z,2536.00
2022-09-23T10:35:41.658Z,2520.00
2022-09-23T10:36:44.553Z,2504.00
2022-09-23T10:37:41.568Z,2488.00
2022-09-23T10:38:41.526Z,2484.00
2022-09-23T10:39:41.488Z,2484.00
2022-09-23T10:40:41.534Z,2480.00
2022-09-23T10:41:41.395Z,2480.00
2022-09-23T10:42:41.353Z,2500.00
2022-09-23T10:43:41.305Z,2528.00
2022-09-23T10:44:41.268Z,2560.00
2022-09-23T10:45:43.231Z,2564.00
2022-09-23T10:46:41.321Z,2568.00
2022-09-23T10:47:41.139Z,2572.00
2022-09-23T10:48:41.090Z,2600.00
2022-09-23T10:49:41.050Z,2628.00
2022-09-23T10:50:41.020Z,2636.00
2022-09-23T10:51:40.959Z,2612.00
2022-09-23T10:52:40.920Z,2612.00
2022-09-23T10:53:40.874Z,2596.00
2022-09-23T10:54:40.831Z,2568.00
2022-09-23T10:55:40.782Z,2572.00
2022-09-23T10:56:40.742Z,2608.00
2022-09-23T10:57:40.824Z,2648.00
2022-09-23T10:58:40.653Z,2696.00
2022-09-23T10:59:40.608Z,2736.00
2022-09-23T11:00:40.569Z,2736.00
2022-09-23T11:01:40.608Z,2716.00
2022-09-23T11:02:40.481Z,2724.00
2022-09-23T11:03:40.434Z,2732.00
2022-09-23T11:04:40.439Z,2768.00
2022-09-23T11:05:40.357Z,2792.00
2022-09-23T11:06:40.323Z,2844.00
2022-09-23T11:07:40.260Z,2872.00
2022-09-23T11:08:40.226Z,2908.00
2022-09-23T11:09:40.190Z,2940.00
2022-09-23T11:10:46.059Z,2980.00
2022-09-23T11:11:40.086Z,3028.00
2022-09-23T11:12:40.047Z,3076.00
2022-09-23T11:13:40.005Z,3132.00
2022-09-23T11:14:39.959Z,3152.00
2022-09-23T11:15:39.915Z,3168.00
2022-09-23T11:16:39.895Z,3204.00
2022-09-23T11:17:39.835Z,3248.00
2022-09-23T11:18:39.782Z,3264.00
2022-09-23T11:19:44.704Z,3220.00
2022-09-23T11:20:39.698Z,3196.00
2022-09-23T11:21:39.656Z,3112.00
2022-09-23T11:22:39.627Z,3112.00
2022-09-23T11:23:39.567Z,3148.00
2022-09-23T11:24:39.521Z,3156.00
2022-09-23T11:25:39.491Z,3168.00
2022-09-23T11:26:39.435Z,3204.00
2022-09-23T11:27:39.397Z,3184.00
2022-09-23T11:28:39.349Z,3188.00
2022-09-23T11:29:39.309Z,3160.00
2022-09-23T11:30:39.321Z,3160.00
2022-09-23T11:31:39.220Z,3180.00
2022-09-23T11:32:39.177Z,3204.00
2022-09-23T11:33:39.134Z,3256.00
2022-09-23T11:34:39.093Z,3284.00
2022-09-23T11:36:39.000Z,3356.00
2022-09-23T11:37:38.954Z,3392.00
2022-09-23T11:38:38.929Z,3440.00
2022-09-23T11:39:38.872Z,3456.00
2022-09-23T11:40:42.368Z,3480.00
2022-09-23T11:41:38.782Z,3548.00
2022-09-23T11:42:38.738Z,3604.00
2022-09-23T11:43:38.706Z,3664.00
2022-09-23T11:44:38.657Z,3660.00
2022-09-23T11:45:38.703Z,3576.00
2022-09-23T11:46:38.566Z,3704.00
2022-09-23T11:47:39.947Z,3672.00
2022-09-23T11:48:38.481Z,3892.00
2022-09-23T11:49:38.438Z,3864.00
2022-09-23T11:50:38.394Z,3916.00
2022-09-23T11:51:38.349Z,3912.00
2022-09-23T11:52:38.306Z,3916.00
2022-09-23T11:53:38.268Z,3912.00
2022-09-23T11:54:38.250Z,3908.00
2022-09-23T11:55:40.728Z,3880.00
2022-09-23T11:56:40.525Z,3840.00
2022-09-23T11:57:47.003Z,3852.00
2022-09-23T11:58:38.046Z,3884.00
2022-09-23T11:59:40.875Z,3976.00
2022-09-23T12:00:38.034Z,3968.00
2022-09-23T12:01:39.018Z,4024.00
2022-09-23T12:02:37.999Z,4192.00
2022-09-23T12:03:43.862Z,4472.00
2022-09-23T12:04:45.236Z,4620.00
2022-09-23T12:05:37.875Z,4256.00
2022-09-23T12:06:37.699Z,4672.00
2022-09-23T12:10:09.282Z,4764.00
2022-09-23T12:12:12.629Z,4604.00
2022-09-23T12:13:12.591Z,4504.00
2022-09-23T12:14:12.551Z,4356.00
2022-09-23T12:15:12.501Z,4272.00
2022-09-23T12:16:12.509Z,3776.00
2022-09-23T12:17:12.420Z,4260.00
2022-09-23T12:18:12.377Z,4244.00
2022-09-23T12:19:12.329Z,4384.00
2022-09-23T12:20:12.348Z,4292.00
2022-09-23T12:21:22.394Z,4160.00
2022-09-23T12:22:12.202Z,4108.00
2022-09-23T12:23:12.159Z,4084.00
2022-09-23T12:24:15.905Z,3992.00
2022-09-23T12:25:12.108Z,3884.00
2022-09-23T12:26:12.030Z,3764.00
2022-09-23T12:27:56.385Z,3560.00
2022-09-23T12:28:56.354Z,3428.00
2022-09-23T12:29:56.305Z,3324.00
2022-09-23T12:30:56.343Z,3240.00
2022-09-23T12:31:56.217Z,3176.00
2022-09-23T12:32:56.178Z,3132.00
2022-09-23T12:33:56.139Z,3084.00
2022-09-23T12:34:56.094Z,3044.00
2022-09-23T12:35:56.055Z,3048.00
2022-09-23T12:36:56.011Z,3020.00
2022-09-23T12:37:55.963Z,2984.00
2022-09-23T12:38:55.929Z,2976.00
2022-09-23T12:39:55.877Z,2976.00
2022-09-23T12:40:55.857Z,2972.00
2022-09-23T12:41:55.791Z,2980.00
2022-09-23T12:42:55.751Z,2988.00
2022-09-23T12:43:55.707Z,2968.00